sensor_id;sensor_type;location;lat;lon;timestamp;pressure;altitude;pressure_sealevel;temperature;humidity
83116;BME280;72996;40.206;44.498;2024-01-27T00:00:08;88421.84;;;3.45;51.50
83116;BME280;72996;40.206;44.498;2024-01-27T00:02:34;88414.41;;;3.49;50.90
83116;BME280;72996;40.206;44.498;2024-01-27T00:05:00;88402.50;;;3.40;51.46
83116;BME280;72996;40.206;44.498;2024-01-27T00:07:25;88405.84;;;3.48;51.13
83116;BME280;72996;40.206;44.498;2024-01-27T00:09:53;88392.56;;;3.39;51.55
83116;BME280;72996;40.206;44.498;2024-01-27T00:12:19;88380.41;;;3.41;51.48
83116;BME280;72996;40.206;44.498;2024-01-27T00:14:45;88388.75;;;3.40;51.68
83116;BME280;72996;40.206;44.498;2024-01-27T00:17:10;88352.78;;;3.18;52.30
83116;BME280;72996;40.206;44.498;2024-01-27T00:19:36;88368.53;;;3.33;52.64
83116;BME280;72996;40.206;44.498;2024-01-27T00:22:01;88353.03;;;3.35;52.17
83116;BME280;72996;40.206;44.498;2024-01-27T00:24:28;88361.63;;;3.50;52.65
83116;BME280;72996;40.206;44.498;2024-01-27T00:26:53;88358.84;;;3.56;52.50
83116;BME280;72996;40.206;44.498;2024-01-27T00:29:19;88329.81;;;3.24;51.55
83116;BME280;72996;40.206;44.498;2024-01-27T00:31:45;88350.78;;;3.39;51.88
83116;BME280;72996;40.206;44.498;2024-01-27T00:34:11;88337.72;;;3.39;51.91
83116;BME280;72996;40.206;44.498;2024-01-27T00:36:36;88276.66;;;3.06;51.53
83116;BME280;72996;40.206;44.498;2024-01-27T00:39:03;88307.63;;;3.53;51.16
83116;BME280;72996;40.206;44.498;2024-01-27T00:41:29;88325.44;;;3.62;52.46
83116;BME280;72996;40.206;44.498;2024-01-27T00:43:54;88323.88;;;3.59;52.24
83116;BME280;72996;40.206;44.498;2024-01-27T00:46:20;88327.88;;;3.60;52.40
83116;BME280;72996;40.206;44.498;2024-01-27T00:48:46;88314.97;;;3.62;52.17
83116;BME280;72996;40.206;44.498;2024-01-27T00:51:12;88268.75;;;3.34;52.04
83116;BME280;72996;40.206;44.498;2024-01-27T00:53:38;88318.81;;;3.61;51.91
83116;BME280;72996;40.206;44.498;2024-01-27T00:56:04;88297.88;;;3.46;52.41
83116;BME280;72996;40.206;44.498;2024-01-27T00:58:30;88304.66;;;3.41;52.42
83116;BME280;72996;40.206;44.498;2024-01-27T01:00:56;88323.09;;;3.43;52.72
83116;BME280;72996;40.206;44.498;2024-01-27T01:03:22;88310.06;;;3.51;51.93
83116;BME280;72996;40.206;44.498;2024-01-27T01:05:48;88297.19;;;3.53;51.94
83116;BME280;72996;40.206;44.498;2024-01-27T01:08:13;88290.56;;;3.52;52.03
83116;BME280;72996;40.206;44.498;2024-01-27T01:10:39;88268.59;;;3.40;52.51
83116;BME280;72996;40.206;44.498;2024-01-27T01:13:04;88289.34;;;3.53;52.40
83116;BME280;72996;40.206;44.498;2024-01-27T01:15:30;88282.59;;;3.57;52.05
83116;BME280;72996;40.206;44.498;2024-01-27T01:17:57;88261.31;;;3.46;52.56
83116;BME280;72996;40.206;44.498;2024-01-27T01:20:22;88277.03;;;3.61;51.83
83116;BME280;72996;40.206;44.498;2024-01-27T01:22:49;88279.47;;;3.59;52.60
83116;BME280;72996;40.206;44.498;2024-01-27T01:25:15;88274.53;;;3.48;51.71
83116;BME280;72996;40.206;44.498;2024-01-27T01:27:40;88254.50;;;3.35;51.90
83116;BME280;72996;40.206;44.498;2024-01-27T01:30:06;88274.22;;;3.51;52.10
83116;BME280;72996;40.206;44.498;2024-01-27T01:32:32;88271.41;;;3.49;52.33
83116;BME280;72996;40.206;44.498;2024-01-27T01:34:58;88249.75;;;3.26;52.24
83116;BME280;72996;40.206;44.498;2024-01-27T01:37:24;88271.38;;;3.42;52.82
83116;BME280;72996;40.206;44.498;2024-01-27T01:39:49;88261.63;;;3.35;51.90
83116;BME280;72996;40.206;44.498;2024-01-27T01:42:15;88248.72;;;3.37;52.54
83116;BME280;72996;40.206;44.498;2024-01-27T01:44:41;88191.19;;;2.92;52.86
83116;BME280;72996;40.206;44.498;2024-01-27T01:47:07;88243.16;;;3.33;51.61
83116;BME280;72996;40.206;44.498;2024-01-27T01:49:33;88244.03;;;3.43;52.22
83116;BME280;72996;40.206;44.498;2024-01-27T01:51:59;88233.06;;;3.37;51.79
83116;BME280;72996;40.206;44.498;2024-01-27T01:54:25;88255.06;;;3.56;51.63
83116;BME280;72996;40.206;44.498;2024-01-27T01:56:55;88247.22;;;3.49;51.37
83116;BME280;72996;40.206;44.498;2024-01-27T01:59:21;88268.28;;;3.51;51.49
83116;BME280;72996;40.206;44.498;2024-01-27T02:01:46;88274.72;;;3.50;51.14
83116;BME280;72996;40.206;44.498;2024-01-27T02:04:12;88287.09;;;3.57;51.58
83116;BME280;72996;40.206;44.498;2024-01-27T02:06:38;88271.72;;;3.38;52.47
83116;BME280;72996;40.206;44.498;2024-01-27T02:09:03;88278.50;;;3.34;52.38
83116;BME280;72996;40.206;44.498;2024-01-27T02:11:30;88254.28;;;3.26;52.38
83116;BME280;72996;40.206;44.498;2024-01-27T02:13:56;88258.47;;;3.29;51.83
83116;BME280;72996;40.206;44.498;2024-01-27T02:16:21;88252.50;;;3.21;52.56
83116;BME280;72996;40.206;44.498;2024-01-27T02:18:47;88255.97;;;3.16;52.42
83116;BME280;72996;40.206;44.498;2024-01-27T02:21:13;88172.81;;;2.69;52.92
83116;BME280;72996;40.206;44.498;2024-01-27T02:23:38;88229.88;;;3.16;53.18
83116;BME280;72996;40.206;44.498;2024-01-27T02:26:04;88244.88;;;3.23;52.70
83116;BME280;72996;40.206;44.498;2024-01-27T02:28:30;88217.47;;;3.01;52.59
83116;BME280;72996;40.206;44.498;2024-01-27T02:30:58;88232.34;;;3.21;52.14
83116;BME280;72996;40.206;44.498;2024-01-27T02:33:25;88224.66;;;3.16;52.33
83116;BME280;72996;40.206;44.498;2024-01-27T02:35:51;88249.72;;;3.19;52.61
83116;BME280;72996;40.206;44.498;2024-01-27T02:38:17;88242.38;;;3.10;52.75
83116;BME280;72996;40.206;44.498;2024-01-27T02:40:42;88246.63;;;3.28;52.72
83116;BME280;72996;40.206;44.498;2024-01-27T02:43:08;88238.59;;;3.26;52.90
83116;BME280;72996;40.206;44.498;2024-01-27T02:45:33;88223.97;;;3.15;52.53
83116;BME280;72996;40.206;44.498;2024-01-27T02:47:59;88242.06;;;3.21;53.14
83116;BME280;72996;40.206;44.498;2024-01-27T02:50:25;88234.97;;;3.29;52.44
83116;BME280;72996;40.206;44.498;2024-01-27T02:52:50;88223.31;;;3.30;52.32
83116;BME280;72996;40.206;44.498;2024-01-27T02:55:16;88222.28;;;3.33;52.62
83116;BME280;72996;40.206;44.498;2024-01-27T02:57:42;88213.75;;;3.40;51.97
83116;BME280;72996;40.206;44.498;2024-01-27T03:00:08;88191.28;;;3.37;51.98
83116;BME280;72996;40.206;44.498;2024-01-27T03:02:34;88188.16;;;3.46;52.03
83116;BME280;72996;40.206;44.498;2024-01-27T03:05:00;88191.44;;;3.24;52.29
83116;BME280;72996;40.206;44.498;2024-01-27T03:07:26;88202.06;;;3.26;52.37
83116;BME280;72996;40.206;44.498;2024-01-27T03:09:51;88198.19;;;3.19;52.44
83116;BME280;72996;40.206;44.498;2024-01-27T03:12:17;88198.91;;;3.20;53.13
83116;BME280;72996;40.206;44.498;2024-01-27T03:14:43;88196.78;;;3.11;53.85
83116;BME280;72996;40.206;44.498;2024-01-27T03:17:10;88132.63;;;2.65;53.65
83116;BME280;72996;40.206;44.498;2024-01-27T03:19:35;88193.13;;;3.06;53.45
83116;BME280;72996;40.206;44.498;2024-01-27T03:22:01;88197.78;;;2.93;52.96
83116;BME280;72996;40.206;44.498;2024-01-27T03:24:27;88181.75;;;2.89;53.52
83116;BME280;72996;40.206;44.498;2024-01-27T03:26:52;88178.16;;;3.07;53.25
83116;BME280;72996;40.206;44.498;2024-01-27T03:29:18;88196.13;;;3.18;52.68
83116;BME280;72996;40.206;44.498;2024-01-27T03:31:44;88168.56;;;3.02;53.21
83116;BME280;72996;40.206;44.498;2024-01-27T03:34:09;88120.97;;;2.66;53.44
83116;BME280;72996;40.206;44.498;2024-01-27T03:36:35;88176.63;;;3.19;53.05
83116;BME280;72996;40.206;44.498;2024-01-27T03:39:00;88203.81;;;3.38;52.78
83116;BME280;72996;40.206;44.498;2024-01-27T03:41:26;88197.56;;;3.34;53.07
83116;BME280;72996;40.206;44.498;2024-01-27T03:43:52;88197.19;;;3.30;53.13
83116;BME280;72996;40.206;44.498;2024-01-27T03:46:17;88178.72;;;3.20;53.16
83116;BME280;72996;40.206;44.498;2024-01-27T03:48:43;88204.69;;;3.41;52.55
83116;BME280;72996;40.206;44.498;2024-01-27T03:51:09;88195.47;;;3.40;52.64
83116;BME280;72996;40.206;44.498;2024-01-27T03:53:35;88201.03;;;3.36;52.62
83116;BME280;72996;40.206;44.498;2024-01-27T03:56:01;88201.19;;;3.31;52.61
83116;BME280;72996;40.206;44.498;2024-01-27T03:58:29;88195.75;;;3.14;53.76
83116;BME280;72996;40.206;44.498;2024-01-27T04:00:56;88185.50;;;3.16;53.85
83116;BME280;72996;40.206;44.498;2024-01-27T04:03:22;88186.41;;;3.33;53.53
83116;BME280;72996;40.206;44.498;2024-01-27T04:05:48;88193.06;;;3.57;52.29
83116;BME280;72996;40.206;44.498;2024-01-27T04:08:14;88172.16;;;3.49;52.44
83116;BME280;72996;40.206;44.498;2024-01-27T04:10:39;88179.81;;;3.55;52.33
83116;BME280;72996;40.206;44.498;2024-01-27T04:13:05;88159.59;;;3.48;52.41
83116;BME280;72996;40.206;44.498;2024-01-27T04:15:33;88172.00;;;3.55;52.49
83116;BME280;72996;40.206;44.498;2024-01-27T04:18:08;88180.50;;;3.55;52.40
83116;BME280;72996;40.206;44.498;2024-01-27T04:20:35;88180.16;;;3.44;52.47
83116;BME280;72996;40.206;44.498;2024-01-27T04:23:01;88169.72;;;3.44;52.47
83116;BME280;72996;40.206;44.498;2024-01-27T04:25:26;88164.16;;;3.55;52.37
83116;BME280;72996;40.206;44.498;2024-01-27T04:27:52;88169.03;;;3.66;52.58
83116;BME280;72996;40.206;44.498;2024-01-27T04:30:18;88152.66;;;3.58;52.96
83116;BME280;72996;40.206;44.498;2024-01-27T04:32:44;88186.47;;;3.86;52.33
83116;BME280;72996;40.206;44.498;2024-01-27T04:35:11;88167.31;;;3.76;52.43
83116;BME280;72996;40.206;44.498;2024-01-27T04:37:37;88171.81;;;3.83;51.97
83116;BME280;72996;40.206;44.498;2024-01-27T04:40:07;88178.09;;;3.80;52.58
83116;BME280;72996;40.206;44.498;2024-01-27T04:42:42;88164.34;;;3.72;52.28
83116;BME280;72996;40.206;44.498;2024-01-27T04:45:08;88160.16;;;3.46;53.03
83116;BME280;72996;40.206;44.498;2024-01-27T04:47:33;88165.53;;;3.48;53.35
83116;BME280;72996;40.206;44.498;2024-01-27T04:49:59;88170.75;;;3.41;52.25
83116;BME280;72996;40.206;44.498;2024-01-27T04:52:25;88169.66;;;3.14;53.18
83116;BME280;72996;40.206;44.498;2024-01-27T04:54:51;88167.19;;;3.08;52.84
83116;BME280;72996;40.206;44.498;2024-01-27T04:57:16;88170.69;;;3.18;53.92
83116;BME280;72996;40.206;44.498;2024-01-27T04:59:42;88153.69;;;3.32;53.61
83116;BME280;72996;40.206;44.498;2024-01-27T05:02:08;88144.56;;;3.11;53.38
83116;BME280;72996;40.206;44.498;2024-01-27T05:04:33;88086.19;;;2.71;53.66
83116;BME280;72996;40.206;44.498;2024-01-27T05:06:59;88149.66;;;3.24;53.26
83116;BME280;72996;40.206;44.498;2024-01-27T05:09:25;88145.84;;;3.32;52.41
83116;BME280;72996;40.206;44.498;2024-01-27T05:11:51;88173.88;;;3.47;53.72
83116;BME280;72996;40.206;44.498;2024-01-27T05:14:19;88176.31;;;3.30;53.31
83116;BME280;72996;40.206;44.498;2024-01-27T05:16:45;88164.44;;;3.14;54.17
83116;BME280;72996;40.206;44.498;2024-01-27T05:19:11;88195.81;;;3.29;53.67
83116;BME280;72996;40.206;44.498;2024-01-27T05:21:37;88156.03;;;2.93;53.32
83116;BME280;72996;40.206;44.498;2024-01-27T05:24:04;88195.03;;;3.06;54.15
83116;BME280;72996;40.206;44.498;2024-01-27T05:26:30;88193.28;;;3.01;54.24
83116;BME280;72996;40.206;44.498;2024-01-27T05:28:55;88198.84;;;2.97;54.07
83116;BME280;72996;40.206;44.498;2024-01-27T05:31:21;88203.53;;;2.99;53.75
83116;BME280;72996;40.206;44.498;2024-01-27T05:33:47;88188.00;;;2.86;53.71
83116;BME280;72996;40.206;44.498;2024-01-27T05:36:12;88174.75;;;2.76;53.82
83116;BME280;72996;40.206;44.498;2024-01-27T05:38:38;88194.97;;;2.91;53.83
83116;BME280;72996;40.206;44.498;2024-01-27T05:41:04;88226.91;;;3.19;53.92
83116;BME280;72996;40.206;44.498;2024-01-27T05:43:30;88215.63;;;3.32;53.65
83116;BME280;72996;40.206;44.498;2024-01-27T05:45:55;88207.63;;;3.30;52.89
83116;BME280;72996;40.206;44.498;2024-01-27T05:48:21;88208.16;;;3.28;52.99
83116;BME280;72996;40.206;44.498;2024-01-27T05:50:57;88199.28;;;3.24;53.07
83116;BME280;72996;40.206;44.498;2024-01-27T05:53:23;88206.75;;;3.20;52.82
83116;BME280;72996;40.206;44.498;2024-01-27T05:55:49;88204.16;;;3.35;52.78
83116;BME280;72996;40.206;44.498;2024-01-27T05:58:15;88185.31;;;3.14;53.67
83116;BME280;72996;40.206;44.498;2024-01-27T06:00:44;88208.50;;;3.25;52.95
83116;BME280;72996;40.206;44.498;2024-01-27T06:03:10;88180.94;;;3.01;53.05
83116;BME280;72996;40.206;44.498;2024-01-27T06:05:36;88185.63;;;3.03;53.05
83116;BME280;72996;40.206;44.498;2024-01-27T06:08:02;88225.41;;;3.31;52.88
83116;BME280;72996;40.206;44.498;2024-01-27T06:10:28;88229.91;;;3.31;53.52
83116;BME280;72996;40.206;44.498;2024-01-27T06:12:53;88229.44;;;3.40;52.77
83116;BME280;72996;40.206;44.498;2024-01-27T06:15:19;88189.78;;;2.98;52.75
83116;BME280;72996;40.206;44.498;2024-01-27T06:17:44;88213.66;;;3.10;53.36
83116;BME280;72996;40.206;44.498;2024-01-27T06:20:10;88234.78;;;3.27;53.28
83116;BME280;72996;40.206;44.498;2024-01-27T06:22:36;88217.31;;;3.14;52.79
83116;BME280;72996;40.206;44.498;2024-01-27T06:25:02;88199.19;;;3.01;53.09
83116;BME280;72996;40.206;44.498;2024-01-27T06:27:28;88215.88;;;2.98;53.81
83116;BME280;72996;40.206;44.498;2024-01-27T06:29:53;88223.56;;;3.04;53.70
83116;BME280;72996;40.206;44.498;2024-01-27T06:32:19;88173.13;;;2.66;53.95
83116;BME280;72996;40.206;44.498;2024-01-27T06:34:44;88212.53;;;2.83;53.85
83116;BME280;72996;40.206;44.498;2024-01-27T06:37:10;88220.91;;;2.89;53.97
83116;BME280;72996;40.206;44.498;2024-01-27T06:39:35;88207.81;;;2.81;53.36
83116;BME280;72996;40.206;44.498;2024-01-27T06:42:01;88192.88;;;2.82;54.08
83116;BME280;72996;40.206;44.498;2024-01-27T06:44:27;88206.31;;;3.01;53.26
83116;BME280;72996;40.206;44.498;2024-01-27T06:46:52;88217.44;;;2.94;53.57
83116;BME280;72996;40.206;44.498;2024-01-27T06:49:18;88217.91;;;2.85;53.43
83116;BME280;72996;40.206;44.498;2024-01-27T06:51:45;88199.78;;;2.72;53.20
83116;BME280;72996;40.206;44.498;2024-01-27T06:54:11;88226.84;;;2.89;53.53
83116;BME280;72996;40.206;44.498;2024-01-27T06:56:36;88222.50;;;2.92;53.37
83116;BME280;72996;40.206;44.498;2024-01-27T06:59:02;88215.38;;;3.00;53.44
83116;BME280;72996;40.206;44.498;2024-01-27T07:01:27;88196.78;;;3.11;53.26
83116;BME280;72996;40.206;44.498;2024-01-27T07:03:53;88205.00;;;3.22;52.66
83116;BME280;72996;40.206;44.498;2024-01-27T07:06:19;88210.75;;;3.28;52.21
83116;BME280;72996;40.206;44.498;2024-01-27T07:08:44;88204.16;;;3.35;52.64
83116;BME280;72996;40.206;44.498;2024-01-27T07:11:10;88202.44;;;3.45;52.73
83116;BME280;72996;40.206;44.498;2024-01-27T07:13:36;88185.72;;;3.48;52.86
83116;BME280;72996;40.206;44.498;2024-01-27T07:16:02;88171.47;;;3.41;52.22
83116;BME280;72996;40.206;44.498;2024-01-27T07:18:28;88193.03;;;3.49;52.31
83116;BME280;72996;40.206;44.498;2024-01-27T07:20:55;88200.56;;;3.68;52.73
83116;BME280;72996;40.206;44.498;2024-01-27T07:23:20;88198.66;;;3.76;52.66
83116;BME280;72996;40.206;44.498;2024-01-27T07:25:46;88189.25;;;3.73;52.51
83116;BME280;72996;40.206;44.498;2024-01-27T07:28:12;88186.63;;;3.80;52.00
83116;BME280;72996;40.206;44.498;2024-01-27T07:30:37;88188.03;;;3.89;52.36
83116;BME280;72996;40.206;44.498;2024-01-27T07:33:04;88195.88;;;3.89;51.97
83116;BME280;72996;40.206;44.498;2024-01-27T07:35:29;88183.34;;;3.80;52.06
83116;BME280;72996;40.206;44.498;2024-01-27T07:37:57;88164.16;;;3.62;52.36
83116;BME280;72996;40.206;44.498;2024-01-27T07:40:22;88181.38;;;3.65;52.27
83116;BME280;72996;40.206;44.498;2024-01-27T07:42:48;88189.25;;;3.80;52.82
83116;BME280;72996;40.206;44.498;2024-01-27T07:45:14;88200.75;;;4.07;52.73
83116;BME280;72996;40.206;44.498;2024-01-27T07:47:41;88180.88;;;4.12;51.27
83116;BME280;72996;40.206;44.498;2024-01-27T07:50:07;88199.31;;;4.36;51.86
83116;BME280;72996;40.206;44.498;2024-01-27T07:52:35;88195.16;;;4.26;51.92
83116;BME280;72996;40.206;44.498;2024-01-27T07:55:01;88184.72;;;4.26;51.58
83116;BME280;72996;40.206;44.498;2024-01-27T07:57:27;88155.78;;;3.94;51.90
83116;BME280;72996;40.206;44.498;2024-01-27T07:59:53;88119.56;;;3.75;52.41
83116;BME280;72996;40.206;44.498;2024-01-27T08:02:19;88193.41;;;4.36;52.25
83116;BME280;72996;40.206;44.498;2024-01-27T08:04:44;88188.19;;;4.36;52.14
83116;BME280;72996;40.206;44.498;2024-01-27T08:07:10;88182.94;;;4.43;52.03
83116;BME280;72996;40.206;44.498;2024-01-27T08:09:36;88179.09;;;4.44;51.37
83116;BME280;72996;40.206;44.498;2024-01-27T08:12:03;88181.34;;;4.55;52.02
83116;BME280;72996;40.206;44.498;2024-01-27T08:14:29;88182.91;;;4.66;52.09
83116;BME280;72996;40.206;44.498;2024-01-27T08:16:59;88174.81;;;4.79;52.15
83116;BME280;72996;40.206;44.498;2024-01-27T08:19:25;88150.38;;;4.84;51.08
83116;BME280;72996;40.206;44.498;2024-01-27T08:21:50;88138.25;;;4.96;51.40
83116;BME280;72996;40.206;44.498;2024-01-27T08:24:16;88161.34;;;5.22;50.74
83116;BME280;72996;40.206;44.498;2024-01-27T08:26:42;88154.63;;;5.11;50.95
83116;BME280;72996;40.206;44.498;2024-01-27T08:29:10;88148.25;;;4.90;51.78
83116;BME280;72996;40.206;44.498;2024-01-27T08:31:36;88163.00;;;5.10;51.39
83116;BME280;72996;40.206;44.498;2024-01-27T08:34:04;88134.19;;;5.10;51.22
83116;BME280;72996;40.206;44.498;2024-01-27T08:36:29;88148.25;;;5.22;52.01
83116;BME280;72996;40.206;44.498;2024-01-27T08:38:55;88155.31;;;5.12;51.65
83116;BME280;72996;40.206;44.498;2024-01-27T08:41:21;88142.78;;;5.03;52.36
83116;BME280;72996;40.206;44.498;2024-01-27T08:43:46;88143.81;;;4.60;52.28
83116;BME280;72996;40.206;44.498;2024-01-27T08:46:12;88170.72;;;4.53;52.62
83116;BME280;72996;40.206;44.498;2024-01-27T08:48:39;88159.59;;;4.30;52.63
83116;BME280;72996;40.206;44.498;2024-01-27T08:51:09;88185.75;;;4.23;52.98
83116;BME280;72996;40.206;44.498;2024-01-27T08:53:35;88161.69;;;4.17;52.89
83116;BME280;72996;40.206;44.498;2024-01-27T08:56:01;88182.63;;;4.09;53.69
83116;BME280;72996;40.206;44.498;2024-01-27T08:58:27;88183.34;;;3.87;52.34
83116;BME280;72996;40.206;44.498;2024-01-27T09:00:52;88159.81;;;3.57;53.13
83116;BME280;72996;40.206;44.498;2024-01-27T09:03:18;88188.72;;;3.67;53.61
83116;BME280;72996;40.206;44.498;2024-01-27T09:05:46;88198.81;;;3.63;53.83
83116;BME280;72996;40.206;44.498;2024-01-27T09:08:12;88188.91;;;3.61;53.55
83116;BME280;72996;40.206;44.498;2024-01-27T09:10:37;88160.66;;;3.45;53.67
83116;BME280;72996;40.206;44.498;2024-01-27T09:13:04;88208.41;;;3.75;53.29
83116;BME280;72996;40.206;44.498;2024-01-27T09:15:30;88158.19;;;3.32;53.34
83116;BME280;72996;40.206;44.498;2024-01-27T09:17:56;88201.59;;;3.50;53.15
83116;BME280;72996;40.206;44.498;2024-01-27T09:20:22;88193.25;;;3.59;53.41
83116;BME280;72996;40.206;44.498;2024-01-27T09:22:48;88197.94;;;3.68;52.96
83116;BME280;72996;40.206;44.498;2024-01-27T09:25:17;88205.78;;;3.68;53.58
83116;BME280;72996;40.206;44.498;2024-01-27T09:27:43;88207.03;;;3.82;52.61
83116;BME280;72996;40.206;44.498;2024-01-27T09:30:09;88178.09;;;3.72;52.38
83116;BME280;72996;40.206;44.498;2024-01-27T09:32:35;88191.53;;;3.84;52.28
83116;BME280;72996;40.206;44.498;2024-01-27T09:35:01;88198.66;;;3.91;52.33
83116;BME280;72996;40.206;44.498;2024-01-27T09:37:26;88164.31;;;3.64;52.32
83116;BME280;72996;40.206;44.498;2024-01-27T09:39:52;88196.56;;;3.82;52.52
83116;BME280;72996;40.206;44.498;2024-01-27T09:42:20;88193.78;;;3.80;52.14
83116;BME280;72996;40.206;44.498;2024-01-27T09:44:49;88177.75;;;3.68;52.13
83116;BME280;72996;40.206;44.498;2024-01-27T09:47:15;88194.44;;;3.58;52.59
83116;BME280;72996;40.206;44.498;2024-01-27T09:49:42;88203.16;;;3.53;53.06
83116;BME280;72996;40.206;44.498;2024-01-27T09:52:08;88192.69;;;3.53;53.56
83116;BME280;72996;40.206;44.498;2024-01-27T09:54:34;88154.34;;;3.18;52.68
83116;BME280;72996;40.206;44.498;2024-01-27T09:57:00;88178.41;;;3.39;53.18
83116;BME280;72996;40.206;44.498;2024-01-27T09:59:26;88161.34;;;3.38;52.96
83116;BME280;72996;40.206;44.498;2024-01-27T10:01:53;88177.41;;;3.72;53.18
83116;BME280;72996;40.206;44.498;2024-01-27T10:04:19;88171.13;;;3.75;52.62
83116;BME280;72996;40.206;44.498;2024-01-27T10:06:48;88157.88;;;3.73;51.95
83116;BME280;72996;40.206;44.498;2024-01-27T10:09:16;88165.38;;;3.69;52.15
83116;BME280;72996;40.206;44.498;2024-01-27T10:11:46;88185.75;;;3.78;51.83
83116;BME280;72996;40.206;44.498;2024-01-27T10:14:13;88184.56;;;3.79;52.23
83116;BME280;72996;40.206;44.498;2024-01-27T10:16:40;88133.84;;;3.59;52.18
83116;BME280;72996;40.206;44.498;2024-01-27T10:19:06;88171.81;;;4.13;52.26
83116;BME280;72996;40.206;44.498;2024-01-27T10:21:37;88147.41;;;4.10;51.75
83116;BME280;72996;40.206;44.498;2024-01-27T10:24:02;88164.81;;;4.38;51.97
83116;BME280;72996;40.206;44.498;2024-01-27T10:26:31;88183.44;;;4.57;51.16
83116;BME280;72996;40.206;44.498;2024-01-27T10:28:57;88108.66;;;4.39;51.18
83116;BME280;72996;40.206;44.498;2024-01-27T10:31:30;88171.88;;;5.14;51.47
83116;BME280;72996;40.206;44.498;2024-01-27T10:33:57;88174.97;;;5.28;50.85
83116;BME280;72996;40.206;44.498;2024-01-27T10:36:23;88185.59;;;5.30;51.19
83116;BME280;72996;40.206;44.498;2024-01-27T10:38:49;88186.38;;;5.15;51.37
83116;BME280;72996;40.206;44.498;2024-01-27T10:41:23;88168.47;;;4.97;50.67
83116;BME280;72996;40.206;44.498;2024-01-27T10:43:53;88186.63;;;4.95;50.87
83116;BME280;72996;40.206;44.498;2024-01-27T10:46:20;88196.59;;;4.89;51.06
83116;BME280;72996;40.206;44.498;2024-01-27T10:48:50;88195.03;;;4.78;51.09
83116;BME280;72996;40.206;44.498;2024-01-27T10:51:22;88208.47;;;4.90;50.66
83116;BME280;72996;40.206;44.498;2024-01-27T10:53:52;88196.47;;;4.79;50.31
83116;BME280;72996;40.206;44.498;2024-01-27T10:56:19;88172.75;;;4.70;50.73
83116;BME280;72996;40.206;44.498;2024-01-27T10:58:45;88186.28;;;4.91;50.92
83116;BME280;72996;40.206;44.498;2024-01-27T11:01:13;88203.69;;;5.03;50.51
83116;BME280;72996;40.206;44.498;2024-01-27T11:03:41;88184.25;;;4.82;50.30
83116;BME280;72996;40.206;44.498;2024-01-27T11:06:08;88176.72;;;4.78;51.09
83116;BME280;72996;40.206;44.498;2024-01-27T11:08:34;88209.16;;;4.98;50.71
83116;BME280;72996;40.206;44.498;2024-01-27T11:11:03;88191.53;;;4.91;50.09
83116;BME280;72996;40.206;44.498;2024-01-27T11:13:32;88176.88;;;4.88;50.65
83116;BME280;72996;40.206;44.498;2024-01-27T11:15:58;88207.91;;;4.99;50.87
83116;BME280;72996;40.206;44.498;2024-01-27T11:18:26;88233.56;;;5.08;50.76
83116;BME280;72996;40.206;44.498;2024-01-27T11:20:55;88196.47;;;4.79;50.31
83116;BME280;72996;40.206;44.498;2024-01-27T11:23:34;88218.25;;;4.89;50.56
83116;BME280;72996;40.206;44.498;2024-01-27T11:26:07;88232.72;;;4.98;50.78
83116;BME280;72996;40.206;44.498;2024-01-27T11:28:33;88213.88;;;4.92;51.17
83116;BME280;72996;40.206;44.498;2024-01-27T11:31:04;88236.84;;;5.08;52.04
83116;BME280;72996;40.206;44.498;2024-01-27T11:33:30;88211.56;;;5.03;51.33
83116;BME280;72996;40.206;44.498;2024-01-27T11:36:03;88228.47;;;5.10;50.72
83116;BME280;72996;40.206;44.498;2024-01-27T11:38:33;88217.19;;;4.85;51.34
83116;BME280;72996;40.206;44.498;2024-01-27T11:41:01;88239.16;;;4.97;51.76
83116;BME280;72996;40.206;44.498;2024-01-27T11:43:27;88231.84;;;4.95;51.50
83116;BME280;72996;40.206;44.498;2024-01-27T11:45:59;88233.22;;;5.04;50.83
83116;BME280;72996;40.206;44.498;2024-01-27T11:48:26;88222.50;;;5.17;50.61
83116;BME280;72996;40.206;44.498;2024-01-27T11:51:06;88224.63;;;5.11;50.03
83116;BME280;72996;40.206;44.498;2024-01-27T11:53:33;88243.63;;;5.19;50.89
83116;BME280;72996;40.206;44.498;2024-01-27T11:55:59;88231.34;;;5.36;51.41
83116;BME280;72996;40.206;44.498;2024-01-27T11:58:27;88228.28;;;5.55;50.77
83116;BME280;72996;40.206;44.498;2024-01-27T12:00:53;88230.81;;;5.70;50.46
83116;BME280;72996;40.206;44.498;2024-01-27T12:03:19;88239.53;;;5.80;50.28
83116;BME280;72996;40.206;44.498;2024-01-27T12:05:45;88244.56;;;5.85;50.73
83116;BME280;72996;40.206;44.498;2024-01-27T12:08:11;88239.34;;;5.78;50.39
83116;BME280;72996;40.206;44.498;2024-01-27T12:10:37;88227.56;;;5.54;50.07
83116;BME280;72996;40.206;44.498;2024-01-27T12:13:03;88245.81;;;5.45;50.60
83116;BME280;72996;40.206;44.498;2024-01-27T12:15:29;88241.34;;;5.23;50.81
83116;BME280;72996;40.206;44.498;2024-01-27T12:17:55;88228.84;;;5.06;51.53
83116;BME280;72996;40.206;44.498;2024-01-27T12:20:22;88222.22;;;4.98;51.53
83116;BME280;72996;40.206;44.498;2024-01-27T12:22:48;88241.00;;;5.19;51.21
83116;BME280;72996;40.206;44.498;2024-01-27T12:25:20;88254.44;;;5.23;51.13
83116;BME280;72996;40.206;44.498;2024-01-27T12:27:46;88260.72;;;5.27;51.58
83116;BME280;72996;40.206;44.498;2024-01-27T12:30:12;88254.78;;;5.27;51.96
83116;BME280;72996;40.206;44.498;2024-01-27T12:32:38;88269.94;;;5.36;51.05
83116;BME280;72996;40.206;44.498;2024-01-27T12:35:05;88280.09;;;5.24;51.35
83116;BME280;72996;40.206;44.498;2024-01-27T12:37:31;88271.06;;;5.18;51.62
83116;BME280;72996;40.206;44.498;2024-01-27T12:39:56;88252.06;;;4.95;51.91
83116;BME280;72996;40.206;44.498;2024-01-27T12:42:22;88262.75;;;4.97;51.92
83116;BME280;72996;40.206;44.498;2024-01-27T12:44:48;88259.94;;;4.95;52.31
83116;BME280;72996;40.206;44.498;2024-01-27T12:47:14;88265.16;;;4.95;52.24
83116;BME280;72996;40.206;44.498;2024-01-27T12:49:40;88274.78;;;4.85;52.84
83116;BME280;72996;40.206;44.498;2024-01-27T12:52:08;88280.25;;;4.64;52.92
83116;BME280;72996;40.206;44.498;2024-01-27T12:54:34;88284.41;;;4.45;53.92